createdAt,value
2023-03-15T00:02:09.781Z,49.41
2023-03-15T00:06:11.990Z,49.74
2023-03-15T00:10:13.732Z,50.00
2023-03-15T00:14:15.839Z,49.79
2023-03-15T00:18:19.651Z,49.66
2023-03-15T00:22:23.390Z,50.08
2023-03-15T00:26:25.234Z,49.83
2023-03-15T00:30:27.479Z,49.85
2023-03-15T00:34:29.168Z,50.04
2023-03-15T00:43:05.809Z,50.25
2023-03-15T00:47:07.636Z,50.21
2023-03-15T00:51:15.085Z,50.22
2023-03-15T00:55:19.932Z,50.15
2023-03-15T00:59:23.271Z,50.03
2023-03-15T01:03:25.087Z,50.32
2023-03-15T01:07:26.908Z,50.34
2023-03-15T01:11:28.692Z,50.33
2023-03-15T01:15:31.373Z,50.21
2023-03-15T01:19:33.913Z,50.11
2023-03-15T01:23:35.776Z,50.42
2023-03-15T01:27:37.583Z,50.68
2023-03-15T01:31:39.844Z,50.46
2023-03-15T01:35:41.679Z,50.61
2023-03-15T01:39:43.630Z,50.52
2023-03-15T01:43:47.491Z,50.46
2023-03-15T01:47:50.214Z,50.41
2023-03-15T01:51:58.101Z,50.94
2023-03-15T01:56:04.316Z,50.73
2023-03-15T02:00:14.000Z,50.52
2023-03-15T02:04:48.948Z,50.71
2023-03-15T02:09:15.163Z,51.12
2023-03-15T02:13:22.894Z,50.87
2023-03-15T02:17:33.494Z,50.82
2023-03-15T02:22:01.996Z,50.94
2023-03-15T02:26:29.849Z,50.77
2023-03-15T02:30:34.066Z,50.95
2023-03-15T02:34:37.796Z,50.97
2023-03-15T02:38:39.535Z,51.08
2023-03-15T02:42:42.596Z,50.99
2023-03-15T02:46:46.836Z,51.16
2023-03-15T02:50:48.619Z,50.96
2023-03-15T02:54:50.447Z,50.78
2023-03-15T02:58:52.237Z,50.55
2023-03-15T03:02:54.642Z,50.63
2023-03-15T03:06:56.377Z,50.44
2023-03-15T03:11:04.444Z,50.56
2023-03-15T03:15:07.551Z,50.59
2023-03-15T03:19:15.248Z,50.68
2023-03-15T03:23:18.368Z,50.53
2023-03-15T03:27:20.065Z,50.65
2023-03-15T03:31:25.337Z,50.71
2023-03-15T03:35:28.529Z,50.80
2023-03-15T03:39:31.061Z,50.41
2023-03-15T03:43:35.735Z,50.20
2023-03-15T03:47:37.771Z,50.05
2023-03-15T03:51:39.577Z,50.12
2023-03-15T03:55:42.823Z,50.34
2023-03-15T03:59:44.910Z,50.01
2023-03-15T04:03:46.776Z,50.33
2023-03-15T04:07:51.695Z,50.25
2023-03-15T04:11:54.019Z,50.39
2023-03-15T04:15:57.897Z,50.42
2023-03-15T04:20:07.336Z,50.42
2023-03-15T04:24:11.963Z,49.87
2023-03-15T04:28:32.968Z,50.21
2023-03-15T04:32:44.931Z,50.11
2023-03-15T04:36:58.470Z,50.00
2023-03-15T04:41:27.108Z,50.05
2023-03-15T04:45:37.125Z,49.80
2023-03-15T04:49:56.285Z,49.90
2023-03-15T04:54:16.698Z,50.01
2023-03-15T04:58:31.333Z,50.16
2023-03-15T05:03:08.386Z,49.80
2023-03-15T05:07:34.481Z,50.13
2023-03-15T05:11:47.739Z,49.87
2023-03-15T05:16:09.056Z,49.56
2023-03-15T05:20:35.592Z,49.79
2023-03-15T05:24:55.816Z,49.72
2023-03-15T05:29:24.419Z,49.50
2023-03-15T05:33:49.022Z,49.95
2023-03-15T05:38:27.029Z,49.45
2023-03-15T05:42:47.672Z,49.60
2023-03-15T05:46:58.356Z,49.70
2023-03-15T05:51:29.465Z,49.65
2023-03-15T05:55:49.033Z,49.61
2023-03-15T06:00:06.933Z,49.70
2023-03-15T06:04:26.258Z,49.79
2023-03-15T06:08:30.525Z,49.53
2023-03-15T06:12:32.376Z,49.44
2023-03-15T06:16:34.833Z,49.58
2023-03-15T06:20:38.779Z,49.72
2023-03-15T06:24:45.015Z,49.42
2023-03-15T06:28:48.570Z,49.48
2023-03-15T06:32:51.182Z,49.29
2023-03-15T06:36:54.214Z,49.47
2023-03-15T06:40:56.474Z,49.31
2023-03-15T06:44:58.776Z,49.33
2023-03-15T06:49:01.196Z,49.33
2023-03-15T06:53:03.060Z,49.27
2023-03-15T06:57:04.968Z,49.34
2023-03-15T07:01:06.779Z,49.02
2023-03-15T07:05:09.180Z,49.27
2023-03-15T07:09:10.906Z,49.17
2023-03-15T07:13:13.383Z,49.38
2023-03-15T07:17:15.611Z,49.23
2023-03-15T07:21:17.411Z,48.88
2023-03-15T07:25:24.034Z,49.24
2023-03-15T07:29:25.924Z,49.43
2023-03-15T07:33:29.632Z,49.27
2023-03-15T07:37:31.448Z,48.97
2023-03-15T07:41:33.301Z,49.07
2023-03-15T07:45:50.206Z,49.03
2023-03-15T07:49:51.977Z,48.83
2023-03-15T07:53:53.790Z,49.17
2023-03-15T07:57:55.530Z,48.75
2023-03-15T08:01:57.280Z,49.10
2023-03-15T08:05:59.081Z,48.92
2023-03-15T08:10:01.795Z,48.86
2023-03-15T08:14:03.537Z,48.98
2023-03-15T08:18:06.558Z,48.82
2023-03-15T08:22:08.380Z,48.65
2023-03-15T08:26:10.113Z,48.79
2023-03-15T08:30:14.167Z,49.02
2023-03-15T08:34:16.310Z,48.48
2023-03-15T08:38:18.097Z,48.82
2023-03-15T08:42:20.013Z,48.99
2023-03-15T08:46:22.273Z,48.93
2023-03-15T08:50:25.855Z,48.67
2023-03-15T08:54:27.698Z,48.85
2023-03-15T08:58:29.540Z,48.50
2023-03-15T09:02:31.278Z,48.35
2023-03-15T09:06:33.054Z,48.63
2023-03-15T09:10:34.873Z,48.61
2023-03-15T09:14:36.760Z,48.60
2023-03-15T09:18:40.652Z,48.84
2023-03-15T09:22:51.829Z,48.54
2023-03-15T09:26:53.649Z,48.69
2023-03-15T09:30:55.388Z,48.35
2023-03-15T09:34:57.390Z,48.71
2023-03-15T09:38:59.555Z,48.54
2023-03-15T09:43:07.055Z,48.62
2023-03-15T09:47:36.925Z,48.39
2023-03-15T09:52:02.900Z,48.42
2023-03-15T09:56:18.867Z,48.50
2023-03-15T10:00:25.981Z,48.81
2023-03-15T10:04:30.864Z,48.67
2023-03-15T10:08:32.804Z,48.44
2023-03-15T10:12:41.524Z,48.62
2023-03-15T10:16:46.938Z,48.81
2023-03-15T10:20:58.998Z,48.31
2023-03-15T10:25:12.019Z,48.95
2023-03-15T10:29:25.747Z,48.80
2023-03-15T10:33:37.513Z,48.55
2023-03-15T10:37:39.269Z,48.73
2023-03-15T10:41:47.437Z,48.56
2023-03-15T10:46:00.638Z,48.32
2023-03-15T10:50:02.388Z,48.34
2023-03-15T10:54:25.103Z,48.61
2023-03-15T10:58:31.579Z,48.71
2023-03-15T11:02:33.484Z,48.70
2023-03-15T11:07:00.778Z,49.11
2023-03-15T11:11:02.548Z,48.92
2023-03-15T11:15:16.263Z,49.02
2023-03-15T11:19:22.305Z,48.59
2023-03-15T11:23:28.967Z,48.66
2023-03-15T11:27:31.960Z,48.85
2023-03-15T11:31:34.273Z,48.87
2023-03-15T11:35:44.520Z,48.86
2023-03-15T11:40:11.585Z,48.84
2023-03-15T11:44:33.792Z,48.93
2023-03-15T11:48:44.391Z,48.88
2023-03-15T11:52:52.977Z,48.92
2023-03-15T11:57:03.503Z,48.76
2023-03-15T12:01:07.254Z,49.04
2023-03-15T12:05:46.858Z,48.99
2023-03-15T12:09:56.369Z,48.86
2023-03-15T12:14:01.132Z,49.25
2023-03-15T12:18:07.021Z,49.11
2023-03-15T12:22:17.578Z,49.15
2023-03-15T12:26:26.550Z,48.67
2023-03-15T12:30:38.569Z,48.53
2023-03-15T12:35:09.034Z,48.91
2023-03-15T12:39:16.643Z,48.49
2023-03-15T12:43:35.614Z,48.90
2023-03-15T12:47:52.427Z,48.39
2023-03-15T12:52:04.772Z,48.37
2023-03-15T12:56:18.716Z,48.27
2023-03-15T13:00:27.538Z,48.74
2023-03-15T13:04:31.029Z,48.53
2023-03-15T13:09:06.821Z,48.39
2023-03-15T13:13:30.236Z,48.38
2023-03-15T13:17:42.592Z,48.46
2023-03-15T13:22:18.303Z,48.47
2023-03-15T13:26:33.223Z,48.59
2023-03-15T13:30:47.208Z,48.24
2023-03-15T13:34:49.987Z,48.08
2023-03-15T13:38:54.843Z,48.51
2023-03-15T13:43:00.940Z,48.42
2023-03-15T13:47:02.650Z,48.27
2023-03-15T13:51:08.339Z,48.00
2023-03-15T13:55:14.502Z,48.13
2023-03-15T13:59:17.690Z,47.92
2023-03-15T14:03:23.050Z,47.87
2023-03-15T14:07:35.619Z,48.04
2023-03-15T14:11:40.943Z,48.33
2023-03-15T14:15:44.390Z,47.90
2023-03-15T14:19:56.887Z,48.14
2023-03-15T14:24:07.044Z,48.19
2023-03-15T14:28:15.263Z,48.52
2023-03-15T14:32:30.923Z,48.16
2023-03-15T14:36:44.710Z,47.94
2023-03-15T14:40:50.106Z,48.41
2023-03-15T14:44:52.362Z,47.91
2023-03-15T14:48:54.116Z,47.91
2023-03-15T14:52:56.811Z,48.21
2023-03-15T14:56:58.570Z,48.31
2023-03-15T15:01:02.860Z,47.95
2023-03-15T15:05:34.490Z,47.93
2023-03-15T15:09:38.451Z,47.85
2023-03-15T15:13:42.540Z,48.05
2023-03-15T15:17:44.398Z,47.97
2023-03-15T15:21:46.239Z,47.97
2023-03-15T15:25:50.678Z,47.90
2023-03-15T15:29:52.477Z,47.73
2023-03-15T15:33:55.773Z,47.83
2023-03-15T15:37:57.665Z,48.13
2023-03-15T15:41:59.410Z,47.65
2023-03-15T15:46:02.015Z,47.95
2023-03-15T15:50:04.126Z,48.19
2023-03-15T15:54:06.164Z,48.17
2023-03-15T15:58:11.969Z,47.95
2023-03-15T16:02:22.334Z,48.25
2023-03-15T16:06:24.394Z,48.24
2023-03-15T16:10:36.032Z,48.56
2023-03-15T16:14:37.771Z,48.12
2023-03-15T16:18:39.481Z,48.20
2023-03-15T16:22:45.433Z,48.33
2023-03-15T16:26:48.429Z,48.47
2023-03-15T16:30:50.327Z,48.41
2023-03-15T16:34:53.451Z,48.45
2023-03-15T16:38:55.634Z,48.64
2023-03-15T16:42:57.715Z,48.71
2023-03-15T16:46:59.396Z,48.63
2023-03-15T16:51:01.065Z,48.75
2023-03-15T16:55:03.020Z,48.71
2023-03-15T16:59:04.973Z,48.76
2023-03-15T17:03:08.251Z,48.59
2023-03-15T17:07:11.737Z,48.57
2023-03-15T17:11:14.003Z,48.97
2023-03-15T17:15:20.387Z,48.76
2023-03-15T17:19:22.270Z,48.67
2023-03-15T17:23:24.494Z,48.67
2023-03-15T17:27:35.461Z,48.43
2023-03-15T17:31:37.898Z,48.70
2023-03-15T17:35:54.173Z,48.24
2023-03-15T17:39:56.914Z,48.69
2023-03-15T17:43:59.270Z,48.65
2023-03-15T17:48:02.110Z,48.12
2023-03-15T17:52:04.815Z,48.25
2023-03-15T17:56:07.436Z,48.40
2023-03-15T18:00:11.362Z,48.19
2023-03-15T18:04:13.873Z,48.47
2023-03-15T18:08:19.747Z,48.46
2023-03-15T18:12:22.376Z,48.47
2023-03-15T18:16:24.675Z,48.26
2023-03-15T18:20:28.212Z,48.32
2023-03-15T18:24:32.035Z,48.38
2023-03-15T18:28:34.099Z,47.80
2023-03-15T18:32:35.945Z,48.20
2023-03-15T18:36:37.724Z,48.37
2023-03-15T18:40:39.600Z,48.10
2023-03-15T18:44:41.457Z,48.05
2023-03-15T18:48:45.456Z,48.04
2023-03-15T18:52:47.536Z,47.73
2023-03-15T18:56:49.659Z,48.21
2023-03-15T19:00:51.496Z,48.03
2023-03-15T19:04:53.573Z,47.81
2023-03-15T19:08:55.481Z,48.01
2023-03-15T19:12:57.201Z,48.03
2023-03-15T19:16:59.877Z,47.64
2023-03-15T19:21:02.648Z,47.62
2023-03-15T19:25:06.157Z,47.83
2023-03-15T19:29:07.968Z,47.82
2023-03-15T19:33:10.196Z,47.53
2023-03-15T19:37:12.048Z,47.80
2023-03-15T19:41:14.565Z,47.53
2023-03-15T19:45:17.673Z,47.72
2023-03-15T19:49:19.664Z,47.70
2023-03-15T19:53:21.474Z,47.73
2023-03-15T19:57:23.253Z,47.69
2023-03-15T20:01:25.071Z,47.54
2023-03-15T20:05:26.933Z,47.95
2023-03-15T20:09:29.293Z,47.65
2023-03-15T20:13:31.750Z,47.74
2023-03-15T20:17:33.428Z,47.87
2023-03-15T20:21:35.992Z,47.85
2023-03-15T20:25:37.693Z,47.50
2023-03-15T20:29:39.410Z,47.67
2023-03-15T20:33:41.881Z,47.64
2023-03-15T20:37:43.715Z,47.56
2023-03-15T20:41:45.457Z,47.17
2023-03-15T20:45:47.336Z,47.49
2023-03-15T20:49:49.063Z,47.73
2023-03-15T20:53:51.065Z,47.52
2023-03-15T20:57:53.546Z,47.78
2023-03-15T21:01:55.846Z,47.57
2023-03-15T21:05:57.943Z,47.52
2023-03-15T21:10:00.552Z,47.55
2023-03-15T21:14:02.789Z,47.77
2023-03-15T21:18:04.882Z,47.84
2023-03-15T21:22:07.181Z,48.00
2023-03-15T21:26:11.449Z,47.63
2023-03-15T21:30:14.326Z,47.81
2023-03-15T21:34:16.421Z,47.66
2023-03-15T21:38:18.568Z,47.50
2023-03-15T21:42:20.878Z,47.79
2023-03-15T21:46:24.103Z,47.87
2023-03-15T21:50:26.877Z,47.70
2023-03-15T21:54:29.509Z,47.90
2023-03-15T21:58:32.024Z,48.22
2023-03-15T22:02:33.801Z,48.28
2023-03-15T22:06:35.567Z,48.22
2023-03-15T22:10:37.356Z,48.03
2023-03-15T22:14:40.117Z,48.01
2023-03-15T22:18:41.876Z,48.01
2023-03-15T22:22:45.313Z,47.90
2023-03-15T22:26:47.058Z,48.31
2023-03-15T22:30:50.086Z,48.47
2023-03-15T22:34:51.781Z,47.66
2023-03-15T22:38:53.508Z,46.22
2023-03-15T22:42:57.308Z,46.02
2023-03-15T22:46:59.065Z,46.35
2023-03-15T22:51:03.072Z,46.51
2023-03-15T22:55:06.486Z,45.61
2023-03-15T22:59:08.275Z,45.47
2023-03-15T23:03:09.997Z,45.01
2023-03-15T23:07:12.597Z,45.05
2023-03-15T23:11:14.487Z,44.48
2023-03-15T23:15:16.265Z,44.51
2023-03-15T23:19:17.992Z,44.42
2023-03-15T23:23:19.912Z,44.10
2023-03-15T23:27:26.166Z,44.50
2023-03-15T23:31:28.103Z,44.20
2023-03-15T23:35:31.259Z,43.93
2023-03-15T23:39:33.069Z,44.20
2023-03-15T23:43:34.847Z,43.75
2023-03-15T23:47:36.641Z,44.51
2023-03-15T23:51:38.846Z,44.30
2023-03-15T23:55:41.343Z,44.08
2023-03-15T23:59:43.531Z,44.12
